Crescent, Oklahoma
Current Conditions -  °F | °C
As of 2:53 PM on Thursday 27 Nov 2014 (Local Time) from KGOK Reporting Station
Clear Clear  
Wind Chill: 52°   Ceiling: Unl
Heat Index: 52°   Visibility: 10mi
Dew Point: 17°   Wind: 12mph
Humidity: 25%   Direction: 190°S
Pressure: 30.38"   Gusts: NA
Location:  35.95°N, 97.59°W
Report Text: KGOK 272053Z AUTO 19010KT 10SM CLR 11/M08 A3038 RMK AO2 SLP294 T01111083 56042
Loading
Personal Weather Stations






























Interactive Weather Map New forecast layout! Learn more

10-Day Weather Forecast

Advertisements
Track Severe Weather on mobile